• Join FlightAware (Why Join?)
  • Login
  • US Flag 
09:53AM EDT


 

Airport Tracker/Info


-or-


 

Live Flight TrackerFlight Track Log ✈ CCA985 ✈ 31-Jan-2014 ✈ ZUCK / CKG - ZBAA / PEK

Flight Track Log - Related Links

Times and Time Zones

All times are in EST time to prevent confusion due to time zone crossing. See the CCA985 flight status page for this flight to view local times or setup timezone preferences in your user account.

Time Position Orientation Groundspeed Altitude Reporting Facility
EST Latitude Longitude Course Direction KTS MPH feet Rate Location/Type
11:03PM 30.2892 107.1116 35° Northeast  Level Estimated
11:04PM 30.4030 107.2064 36° Northeast  Level Estimated
11:05PM 30.5167 107.3014 36° Northeast  Level Estimated
11:06PM 30.6303 107.3966 36° Northeast  Level Estimated
11:07PM 30.7439 107.4921 36° Northeast  Level Estimated
11:08PM 30.8574 107.5877 36° Northeast  Level Estimated
11:09PM 30.9708 107.6836 36° Northeast  Level Estimated
11:10PM 31.0841 107.7798 36° Northeast  Level Estimated
11:11PM 31.1974 107.8761 36° Northeast  Level Estimated
11:12PM 31.3106 107.9727 36° Northeast  Level Estimated
11:13PM 31.4237 108.0695 36° Northeast  Level Estimated
11:14PM 31.5368 108.1666 36° Northeast  Level Estimated
11:15PM 31.6498 108.2638 36° Northeast  Level Estimated
11:16PM 31.7627 108.3614 36° Northeast  Level Estimated
11:17PM 31.8755 108.4591 36° Northeast  Level Estimated
11:18PM 31.9883 108.5571 36° Northeast  Level Estimated
11:19PM 32.1010 108.6554 36° Northeast  Level Estimated
11:20PM 32.2136 108.7538 36° Northeast  Level Estimated
11:21PM 32.3261 108.8526 37° Northeast  Level Estimated
11:22PM 32.4386 108.9515 37° Northeast  Level Estimated
11:23PM 32.5510 109.0508 37° Northeast  Level Estimated
11:24PM 32.6633 109.1502 37° Northeast  Level Estimated
11:25PM 32.7755 109.2499 37° Northeast  Level Estimated
11:26PM 32.8876 109.3499 37° Northeast  Level Estimated
11:27PM 32.9997 109.4501 37° Northeast  Level Estimated
11:28PM 33.1117 109.5506 37° Northeast  Level Estimated
11:29PM 33.2236 109.6514 37° Northeast  Level Estimated
11:30PM 33.3354 109.7523 37° Northeast  Level Estimated
11:31PM 33.4471 109.8536 37° Northeast  Level Estimated
11:32PM 33.5588 109.9551 37° Northeast  Level Estimated
11:33PM 33.6704 110.0569 37° Northeast  Level Estimated
11:34PM 33.7819 110.1589 37° Northeast  Level Estimated
11:35PM 33.8933 110.2612 37° Northeast  Level Estimated
11:36PM 34.0046 110.3638 37° Northeast  Level Estimated
11:37PM 34.1158 110.4667 37° Northeast  Level Estimated
11:38PM 34.2270 110.5698 37° Northeast  Level Estimated
11:39PM 34.3380 110.6731 38° Northeast  Level Estimated
11:40PM 34.4490 110.7768 38° Northeast  Level Estimated
11:41PM 34.5599 110.8808 38° Northeast  Level Estimated
11:42PM 34.6707 110.9850 38° Northeast  Level Estimated
11:43PM 34.7814 111.0894 38° Northeast  Level Estimated
11:44PM 34.8920 111.1942 38° Northeast  Level Estimated
11:45PM 35.0026 111.2993 38° Northeast  Level Estimated
11:46PM 35.1130 111.4046 38° Northeast  Level Estimated
11:47PM 35.2234 111.5102 38° Northeast  Level Estimated
11:48PM 35.3336 111.6162 38° Northeast  Level Estimated
11:49PM 35.4438 111.7224 38° Northeast  Level Estimated
11:50PM 35.5539 111.8288 38° Northeast  Level Estimated
11:51PM 35.6638 111.9356 38° Northeast  Level Estimated
11:52PM 35.7737 112.0427 38° Northeast  Level Estimated
11:53PM 35.8835 112.1501 38° Northeast  Level Estimated
11:54PM 35.9932 112.2578 38° Northeast  Level Estimated
11:55PM 36.1028 112.3658 39° Northeast  Level Estimated
11:56PM 36.2123 112.4740 39° Northeast  Level Estimated
11:57PM 36.3217 112.5826 39° Northeast  Level Estimated
11:58PM 36.4310 112.6915 39° Northeast  Level Estimated
11:59PM 36.5402 112.8007 39° Northeast  Level Estimated
12:00AM 36.6493 112.9102 39° Northeast  Level Estimated
12:01AM 36.7583 113.0200 39° Northeast  Level Estimated
12:02AM 36.8672 113.1301 39° Northeast  Level Estimated
12:03AM 36.9760 113.2406 39° Northeast  Level Estimated
12:04AM 37.0847 113.3513 39° Northeast  Level Estimated
12:05AM 37.1933 113.4624 39° Northeast  Level Estimated
12:06AM 37.3018 113.5738 39° Northeast  Level Estimated
12:07AM 37.4102 113.6855 39° Northeast  Level Estimated
12:08AM 37.5185 113.7975 39° Northeast  Level Estimated
12:09AM 37.6266 113.9099 39° Northeast  Level Estimated
12:10AM 37.7347 114.0226 39° Northeast  Level Estimated
12:11AM 37.8427 114.1356 40° Northeast  Level Estimated
12:12AM 37.9505 114.2489 40° Northeast  Level Estimated
12:13AM 38.0582 114.3626 40° Northeast  Level Estimated
12:14AM 38.1659 114.4766 40° Northeast  Level Estimated
12:15AM 38.2734 114.5910 40° Northeast  Level Estimated
12:16AM 38.3808 114.7057 40° Northeast  Level Estimated
12:17AM 38.4881 114.8207 40° Northeast  Level Estimated
12:18AM 38.5953 114.9361 40° Northeast  Level Estimated
12:19AM 38.7024 115.0518 40° Northeast  Level Estimated
12:20AM 38.8093 115.1679 40° Northeast  Level Estimated
12:21AM 38.9162 115.2843 40° Northeast  Level Estimated
12:22AM 39.0229 115.4011 40° Northeast  Level Estimated
12:23AM 39.1295 115.5182 40° Northeast  Level Estimated
12:24AM 39.2360 115.6357 40° Northeast  Level Estimated
12:25AM 39.3424 115.7535 41° Northeast  Level Estimated
12:26AM 39.4486 115.8717 41° Northeast  Level Estimated
12:27AM 39.5547 115.9903 41° Northeast  Level Estimated
12:28AM 39.6608 116.1092 41° Northeast  Level Estimated
12:29AM 39.7666 116.2285 41° Northeast  Level Estimated
12:30AM 39.8724 116.3481 41° Northeast  Level Estimated
12:31AM 39.9781 116.4681 41° Northeast  Level Estimated
12:32AM 40.0801 116.5846 41° Northeast  Level Estimated
12:33AM 40.0801 116.5846 288° West  Level Estimated
12:34AM 40.0801 116.5846 288° West  Level Estimated
12:35AM 40.0801 116.5846 288° West  Level Estimated
12:36AM 40.0801 116.5846 288° West  Level Estimated
12:37AM 40.0801 116.5846 288° West  Level Estimated
12:38AM 40.0801 116.5846 288° West  Level Estimated
12:39AM 40.0801 116.5846 288° West  Level Estimated
12:40AM 40.0801 116.5846 288° West  Level Estimated
12:41AM 40.0801 116.5846 288° West  Level Estimated
12:42AM 40.0801 116.5846 288° West  Level Estimated
12:43AM 40.0801 116.5846 288° West  Level Estimated
12:44AM 40.0801 116.5846 288° West  Level Estimated
12:45AM 40.0801 116.5846 288° West  Level Estimated
12:46AM 40.0801 116.5846 288° West  Level Estimated
12:47AM 40.0801 116.5846 288° West  Level Estimated
12:48AM 40.0801 116.5846 288° West  Level Estimated